• Join FlightAware (Why Join?)
  • Login
  • US Flag 
09:01PM EDT


 

Airport Tracker/Info


-or-


 

Live Flight TrackerFlight Track Log ✈ N864AS ✈ 08-May-2012 ✈ KMSP - KCID

Flight Track Log - Related Links

Times and Time Zones

All times are in EDT time to prevent confusion due to time zone crossing. See the N864AS flight status page for this flight to view local times or setup timezone preferences in your user account.

Time Position Orientation Groundspeed Altitude Reporting Facility
EDT Latitude Longitude Course Direction KTS MPH feet Rate Location/Type
11:33AM 44.8958 -93.2550 274° West 163 188 2,400  Level FAA TRACON SMA TRACON (SMA)
11:33AM 44.8983 -93.3072 253° West 207 238 4,300 2,640 Climbing FAA TRACON SMA TRACON (SMA)
11:34AM 44.8856 -93.3675 201° Southwest 245 282 5,900 2,760 Climbing FAA TRACON SMA TRACON (SMA)
11:35AM 44.8433 -93.3906 186° South 276 318 8,000 3,180 Climbing FAA TRACON SMA TRACON (SMA)
11:35AM 44.7886 -93.3989 161° South 288 331 10,200 3,000 Climbing FAA TRACON SMA TRACON (SMA)
11:36AM 44.7333 -93.3725 145° Southeast 312 359 12,000 2,700 Climbing FAA TRACON SMA TRACON (SMA)
11:37AM 44.6892 -93.3283 146° Southeast 315 362 13,800 2,700 Climbing FAA TRACON SMA TRACON (SMA)
11:37AM 44.6378 -93.2800 146° Southeast 322 371 15,600 2,700 Climbing FAA TRACON SMA TRACON (SMA)
11:38AM 44.5858 -93.2308 147° Southeast 327 376 17,500 2,700 Climbing FAA TRACON SMA TRACON (SMA)
11:39AM 44.5314 -93.1806 145° Southeast 338 389 19,300 2,400 Climbing FAA TRACON SMA TRACON (SMA)
11:39AM 44.4825 -93.1333 145° Southeast 346 398 20,700 2,220 Climbing FAA TRACON SMA TRACON (SMA)
11:40AM 44.4269 -93.0797 146° Southeast 351 404 22,300 1,680 Climbing FAA TRACON SMA TRACON (SMA)
11:41AM 44.3708 -93.0269 145° Southeast 350 403 23,000 480 Climbing FAA TRACON SMA TRACON (SMA)
11:41AM 44.3231 -92.9806 146° Southeast 341 392 23,000  Level FAA TRACON SMA TRACON (SMA)
11:42AM 44.2700 -92.9308 152° Southeast 330 380 23,000  Level FAA TRACON SMA TRACON (SMA)
11:43AM 44.2164 -92.8903 152° Southeast 314 361 23,000  Level FAA TRACON SMA TRACON (SMA)
11:43AM 44.1697 -92.8564 154° Southeast 305 351 23,000  Level FAA TRACON SMA TRACON (SMA)
11:44AM 44.1172 -92.8200 153° Southeast 308 354 23,000  Level FAA TRACON SMA TRACON (SMA)
11:45AM 44.0633 -92.7811 156° South 315 362 23,000  Level FAA TRACON SMA TRACON (SMA)
11:46AM 43.9478 -92.7097 154° Southeast 306 352 23,000  Level Minneapolis Center
11:47AM 43.8642 -92.6533 159° South 306 352 23,000  Level Minneapolis Center
11:48AM 43.7908 -92.6139 167° South 306 352 23,000  Level Minneapolis Center
11:49AM 43.7114 -92.5892 174° South 306 352 23,000  Level Minneapolis Center
11:52AM 43.4739 -92.5556 172° South 288 331 23,000  Level Minneapolis Center
11:53AM 43.3906 -92.5394 173° South 294 338 23,000  Level Minneapolis Center
11:54AM 43.3092 -92.5267 173° South 294 338 23,000  Level Minneapolis Center
11:55AM 43.2278 -92.5136 172° South 294 338 23,000  Level Minneapolis Center
11:56AM 43.1464 -92.4978 174° South 294 338 23,000  Level Minneapolis Center
11:58AM 42.9939 -92.4750 156° South 290 334 23,000  Level Chicago Center
11:59AM 42.9181 -92.4289 152° Southeast 290 334 23,000  Level Chicago Center
12:00PM 42.8425 -92.3742 153° Southeast 302 348 23,000  Level Chicago Center
12:01PM 42.7647 -92.3194 152° Southeast 313 360 23,000 -120 Level Chicago Center
12:02PM 42.6889 -92.2650 154° Southeast 313 360 22,800 -1,680 Descending Chicago Center
12:03PM 42.6069 -92.2103 152° Southeast 338 389 19,700 -3,000 Descending Chicago Center
12:04PM 42.5086 -92.1383 154° Southeast 376 433 16,800 -3,000 Descending Chicago Center
12:05PM 42.4142 -92.0750 152° Southeast 387 445 13,800 -2,880 Descending Chicago Center
12:06PM 42.3219 -92.0094 153° Southeast 381 438 11,100 -1,440 Descending Chicago Center
12:07PM 42.2336 -91.9497 152° Southeast 369 425 11,000 -240 Descending Chicago Center
12:08PM 42.1578 -91.8961 152° Southeast 337 388 10,700 -1,020 Descending Chicago Center
12:09PM 42.0839 -91.8428 129° Southeast 313 360 9,000 -1,800 Descending Chicago Center
12:10PM 42.0333 -91.7597 126° Southeast 301 346 7,200 -1,800 Descending Chicago Center
12:11PM 41.9872 -91.6742 127° Southeast 283 326 5,400 -1,200 Descending Chicago Center
12:12PM 41.9450 -91.6000 174° South 275 316 4,800 -1,320 Descending Chicago Center
12:13PM 41.8889 -91.5925 261° West 197 227 2,800 -1,560 Descending Chicago Center
12:14PM 41.8836 -91.6397 261° West 135 155 1,700 -1,140 Descending Chicago Center